createdAt,value
2022-12-12T00:02:32.086Z,-0.80
2022-12-12T00:05:35.254Z,-0.90
2022-12-12T00:08:38.581Z,-0.80
2022-12-12T00:11:41.937Z,-1.30
2022-12-12T00:14:44.872Z,-0.90
2022-12-12T00:17:49.243Z,-0.90
2022-12-12T00:20:53.646Z,-0.90
2022-12-12T00:23:58.723Z,0.10
2022-12-12T00:27:01.786Z,-0.90
2022-12-12T00:30:07.160Z,-0.90
2022-12-12T00:33:11.575Z,-0.90
2022-12-12T00:36:15.345Z,-0.90
2022-12-12T00:39:18.685Z,-0.90
2022-12-12T00:42:22.263Z,0.30
2022-12-12T00:45:25.469Z,-0.90
2022-12-12T00:48:31.447Z,-1.00
2022-12-12T00:51:34.416Z,-1.10
2022-12-12T00:54:37.369Z,-1.10
2022-12-12T00:57:40.373Z,-1.20
2022-12-12T01:00:43.781Z,-1.10
2022-12-12T01:03:48.516Z,-1.20
2022-12-12T01:06:51.486Z,-1.20
2022-12-12T01:09:54.553Z,-1.20
2022-12-12T01:12:57.655Z,-1.10
2022-12-12T01:16:00.991Z,-1.10
2022-12-12T01:19:05.331Z,-1.00
2022-12-12T01:22:08.382Z,-0.90
2022-12-12T01:25:12.674Z,-0.80
2022-12-12T01:28:15.855Z,-0.70
2022-12-12T01:31:19.027Z,0.20
2022-12-12T01:34:23.363Z,-0.80
2022-12-12T01:37:26.474Z,-0.50
2022-12-12T01:40:32.022Z,-0.50
2022-12-12T01:43:34.977Z,0.20
2022-12-12T01:46:45.060Z,-0.40
2022-12-12T01:49:56.590Z,-0.40
2022-12-12T01:52:59.971Z,0.10
2022-12-12T01:56:12.250Z,-0.30
2022-12-12T01:59:20.001Z,-0.20
2022-12-12T02:02:23.324Z,-0.20
2022-12-12T02:05:36.125Z,0.50
2022-12-12T02:08:40.804Z,-0.10
2022-12-12T02:11:48.885Z,0.70
2022-12-12T02:14:53.818Z,-0.20
2022-12-12T02:18:12.696Z,-0.20
2022-12-12T02:21:25.087Z,-0.20
2022-12-12T02:24:59.725Z,-0.20
2022-12-12T02:28:23.695Z,-0.20
2022-12-12T02:31:35.350Z,0.60
2022-12-12T02:34:49.399Z,-0.10
2022-12-12T02:38:06.725Z,0.40
2022-12-12T02:41:24.102Z,-0.20
2022-12-12T02:44:35.218Z,-0.10
2022-12-12T02:47:46.494Z,-0.30
2022-12-12T02:50:53.067Z,-0.10
2022-12-12T02:53:56.019Z,-0.10
2022-12-12T02:57:01.633Z,0.00
2022-12-12T03:00:09.017Z,0.10
2022-12-12T03:03:56.650Z,0.10
2022-12-12T03:07:28.215Z,-0.80
2022-12-12T03:10:50.909Z,0.20
2022-12-12T03:14:04.310Z,0.50
2022-12-12T03:17:18.356Z,0.20
2022-12-12T03:20:29.173Z,0.20
2022-12-12T03:23:40.251Z,0.20
2022-12-12T03:26:50.152Z,0.20
2022-12-12T03:29:59.155Z,0.20
2022-12-12T03:33:10.799Z,0.20
2022-12-12T03:36:22.923Z,0.70
2022-12-12T03:39:34.616Z,0.20
2022-12-12T03:42:44.877Z,0.30
2022-12-12T03:45:56.552Z,0.20
2022-12-12T03:49:08.198Z,0.10
2022-12-12T03:52:20.072Z,0.50
2022-12-12T03:55:30.680Z,0.30
2022-12-12T03:58:38.311Z,0.40
2022-12-12T04:01:49.332Z,0.20
2022-12-12T04:05:04.302Z,0.20
2022-12-12T04:08:13.886Z,0.20
2022-12-12T04:11:42.169Z,0.30
2022-12-12T04:15:04.304Z,0.20
2022-12-12T04:18:21.492Z,0.20
2022-12-12T04:21:56.050Z,0.10
2022-12-12T04:25:08.261Z,0.10
2022-12-12T04:28:13.031Z,0.50
2022-12-12T04:31:18.964Z,0.00
2022-12-12T04:34:34.913Z,-0.10
2022-12-12T04:37:46.129Z,-0.10
2022-12-12T04:40:56.093Z,-0.20
2022-12-12T04:44:02.998Z,-0.20
2022-12-12T04:47:08.280Z,-0.30
2022-12-12T04:50:13.431Z,0.40
2022-12-12T04:53:22.636Z,-0.40
2022-12-12T04:56:31.477Z,-0.40
2022-12-12T04:59:35.376Z,-0.40
2022-12-12T05:02:45.039Z,-0.20
2022-12-12T05:05:55.834Z,-0.10
2022-12-12T05:09:00.265Z,-0.40
2022-12-12T05:12:05.194Z,-0.40
2022-12-12T05:15:10.380Z,-0.20
2022-12-12T05:18:14.053Z,-0.40
2022-12-12T05:21:17.866Z,-0.40
2022-12-12T05:24:20.735Z,-0.40
2022-12-12T05:27:25.062Z,0.50
2022-12-12T05:30:28.391Z,-0.30
2022-12-12T05:33:31.828Z,-0.20
2022-12-12T05:36:34.891Z,-0.20
2022-12-12T05:39:38.076Z,0.00
2022-12-12T05:42:42.770Z,0.20
2022-12-12T05:45:45.895Z,0.10
2022-12-12T05:48:50.692Z,0.20
2022-12-12T05:51:53.787Z,0.40
2022-12-12T05:54:56.860Z,0.20
2022-12-12T05:58:01.903Z,0.40
2022-12-12T06:01:06.649Z,0.40
2022-12-12T06:04:09.674Z,1.40
2022-12-12T06:07:12.954Z,0.50
2022-12-12T06:10:16.183Z,0.60
2022-12-12T06:13:20.521Z,0.60
2022-12-12T06:16:23.563Z,-0.10
2022-12-12T06:19:26.608Z,1.10
2022-12-12T06:22:29.685Z,0.60
2022-12-12T06:25:32.828Z,0.60
2022-12-12T06:28:37.717Z,0.60
2022-12-12T06:31:40.702Z,0.60
2022-12-12T06:34:43.922Z,0.60
2022-12-12T06:37:48.316Z,0.50
2022-12-12T06:40:51.241Z,-0.20
2022-12-12T06:43:55.768Z,0.50
2022-12-12T06:46:58.738Z,0.50
2022-12-12T06:50:01.656Z,0.50
2022-12-12T06:53:04.810Z,1.60
2022-12-12T06:56:09.872Z,0.50
2022-12-12T06:59:15.202Z,0.40
2022-12-12T07:02:18.333Z,0.40
2022-12-12T07:05:21.671Z,0.40
2022-12-12T07:08:24.815Z,0.40
2022-12-12T07:11:28.919Z,0.40
2022-12-12T07:14:33.345Z,1.10
2022-12-12T07:17:36.490Z,0.30
2022-12-12T07:20:41.311Z,0.20
2022-12-12T07:23:44.801Z,0.20
2022-12-12T07:26:47.751Z,0.10
2022-12-12T07:29:52.069Z,0.00
2022-12-12T07:32:55.197Z,0.90
2022-12-12T07:36:00.090Z,1.10
2022-12-12T07:39:03.190Z,-0.20
2022-12-12T07:42:06.266Z,-0.20
2022-12-12T07:45:17.918Z,-0.30
2022-12-12T07:48:21.337Z,-0.30
2022-12-12T07:51:24.544Z,-0.30
2022-12-12T07:54:27.586Z,-0.40
2022-12-12T07:57:31.200Z,-0.40
2022-12-12T08:00:35.694Z,-0.40
2022-12-12T08:03:38.782Z,-0.40
2022-12-12T08:06:41.790Z,-0.50
2022-12-12T08:09:44.725Z,-0.40
2022-12-12T08:12:47.672Z,0.20
2022-12-12T08:15:52.211Z,-0.40
2022-12-12T08:18:55.816Z,-0.40
2022-12-12T08:21:58.766Z,-0.30
2022-12-12T08:25:02.029Z,0.10
2022-12-12T08:28:05.642Z,-0.20
2022-12-12T08:31:11.012Z,-0.10
2022-12-12T08:34:14.124Z,-0.10
2022-12-12T08:37:17.157Z,0.10
2022-12-12T08:40:20.184Z,0.10
2022-12-12T08:43:23.252Z,0.20
2022-12-12T08:46:27.695Z,0.20
2022-12-12T08:49:31.329Z,0.30
2022-12-12T08:52:34.357Z,0.30
2022-12-12T08:55:37.431Z,0.30
2022-12-12T08:58:40.371Z,0.40
2022-12-12T09:01:45.060Z,0.30
2022-12-12T09:04:48.236Z,0.40
2022-12-12T09:07:52.247Z,0.00
2022-12-12T09:10:55.308Z,0.40
2022-12-12T09:13:58.250Z,0.50
2022-12-12T09:17:02.573Z,0.40
2022-12-12T09:20:07.230Z,0.40
2022-12-12T09:23:10.634Z,0.40
2022-12-12T09:26:14.459Z,0.40
2022-12-12T09:29:17.658Z,0.40
2022-12-12T09:32:24.548Z,1.40
2022-12-12T09:35:27.989Z,0.30
2022-12-12T09:38:31.058Z,0.30
2022-12-12T09:41:34.210Z,0.40
2022-12-12T09:44:37.813Z,0.40
2022-12-12T09:47:50.409Z,0.40
2022-12-12T09:50:54.463Z,0.40
2022-12-12T09:53:58.074Z,0.40
2022-12-12T09:57:19.374Z,0.40
2022-12-12T10:00:22.724Z,0.30
2022-12-12T10:03:50.667Z,0.30
2022-12-12T10:07:03.027Z,0.50
2022-12-12T10:10:20.162Z,0.70
2022-12-12T10:13:28.029Z,0.30
2022-12-12T10:16:33.547Z,0.30
2022-12-12T10:19:50.672Z,1.00
2022-12-12T10:23:01.925Z,0.40
2022-12-12T10:26:16.075Z,0.40
2022-12-12T10:29:20.526Z,0.50
2022-12-12T10:32:41.626Z,0.40
2022-12-12T10:36:00.028Z,0.60
2022-12-12T10:39:17.686Z,0.40
2022-12-12T10:42:29.272Z,0.40
2022-12-12T10:45:50.465Z,0.30
2022-12-12T10:48:54.752Z,0.30
2022-12-12T10:52:04.191Z,0.70
2022-12-12T10:55:19.396Z,0.30
2022-12-12T10:58:26.714Z,1.30
2022-12-12T11:05:11.068Z,0.30
2022-12-12T11:08:27.544Z,0.30
2022-12-12T11:11:30.836Z,0.30
2022-12-12T11:14:39.507Z,0.30
2022-12-12T11:17:42.918Z,0.30
2022-12-12T11:20:50.619Z,0.40
2022-12-12T11:23:58.627Z,0.50
2022-12-12T11:27:05.289Z,0.50
2022-12-12T11:30:23.739Z,0.50
2022-12-12T11:33:34.423Z,0.60
2022-12-12T11:36:42.789Z,0.50
2022-12-12T11:39:51.871Z,1.80
2022-12-12T11:43:17.331Z,0.50
2022-12-12T11:46:25.747Z,0.50
2022-12-12T11:49:28.739Z,0.50
2022-12-12T11:52:34.774Z,0.50
2022-12-12T11:55:51.675Z,0.40
2022-12-12T11:59:08.382Z,0.30
2022-12-12T12:02:59.887Z,0.40
2022-12-12T12:06:34.179Z,0.30
2022-12-12T12:09:52.874Z,0.60
2022-12-12T12:13:06.957Z,-0.40
2022-12-12T12:16:25.683Z,0.60
2022-12-12T12:19:40.714Z,0.20
2022-12-12T12:22:58.573Z,0.30
2022-12-12T12:26:11.173Z,0.20
2022-12-12T12:29:51.007Z,0.20
2022-12-12T12:33:24.228Z,1.40
2022-12-12T12:36:41.671Z,0.30
2022-12-12T12:40:14.255Z,1.50
2022-12-12T12:43:41.365Z,0.40
2022-12-12T12:46:58.752Z,0.40
2022-12-12T12:50:14.595Z,0.20
2022-12-12T12:53:32.092Z,0.50
2022-12-12T12:56:43.892Z,0.60
2022-12-12T12:59:51.789Z,0.60
2022-12-12T13:03:06.468Z,0.40
2022-12-12T13:06:19.486Z,0.70
2022-12-12T13:09:34.998Z,0.70
2022-12-12T13:12:45.336Z,0.80
2022-12-12T13:15:54.910Z,0.90
2022-12-12T13:19:25.585Z,0.90
2022-12-12T13:22:49.236Z,-0.20
2022-12-12T13:26:01.166Z,0.90
2022-12-12T13:29:24.787Z,1.00
2022-12-12T13:33:05.309Z,1.00
2022-12-12T13:36:19.643Z,1.10
2022-12-12T13:39:30.872Z,1.10
2022-12-12T13:42:53.886Z,1.20
2022-12-12T13:45:57.257Z,1.10
2022-12-12T13:49:14.825Z,0.40
2022-12-12T13:52:33.736Z,2.20
2022-12-12T13:55:37.844Z,1.20
2022-12-12T13:58:40.930Z,1.20
2022-12-12T14:01:44.061Z,1.50
2022-12-12T14:04:49.613Z,1.30
2022-12-12T14:07:59.818Z,2.10
2022-12-12T14:11:06.938Z,1.20
2022-12-12T14:14:23.392Z,1.10
2022-12-12T14:17:29.825Z,1.00
2022-12-12T14:20:38.936Z,1.00
2022-12-12T14:23:45.802Z,0.90
2022-12-12T14:26:51.055Z,0.90
2022-12-12T14:29:54.326Z,0.10
2022-12-12T14:33:14.315Z,0.80
2022-12-12T14:37:07.928Z,1.20
2022-12-12T14:40:20.400Z,0.70
2022-12-12T14:43:28.081Z,0.20
2022-12-12T14:46:31.674Z,0.60
2022-12-12T14:49:34.880Z,0.00
2022-12-12T14:52:38.311Z,0.50
2022-12-12T14:55:52.248Z,1.10
2022-12-12T14:59:02.805Z,0.40
2022-12-12T15:02:19.649Z,0.40
2022-12-12T15:05:22.718Z,-0.50
2022-12-12T15:08:27.820Z,1.20
2022-12-12T15:11:35.428Z,0.30
2022-12-12T15:14:40.301Z,0.20
2022-12-12T15:17:50.588Z,0.20
2022-12-12T15:20:58.160Z,0.10
2022-12-12T15:24:01.316Z,0.10
2022-12-12T15:27:08.627Z,-0.30
2022-12-12T15:30:30.168Z,0.00
2022-12-12T15:33:40.089Z,0.00
2022-12-12T15:36:43.251Z,0.00
2022-12-12T15:39:46.453Z,0.00
2022-12-12T15:42:55.726Z,0.60
2022-12-12T15:46:14.062Z,0.00
2022-12-12T15:49:43.147Z,-0.10
2022-12-12T15:52:58.109Z,-0.10
2022-12-12T15:56:03.995Z,-0.10
2022-12-12T15:59:25.512Z,-0.10
2022-12-12T16:02:31.885Z,-0.10
2022-12-12T16:05:38.002Z,-0.20
2022-12-12T16:08:49.046Z,-0.10
2022-12-12T16:11:53.895Z,-0.20
2022-12-12T16:15:18.881Z,-0.80
2022-12-12T16:18:25.246Z,-0.20
2022-12-12T16:21:29.649Z,-0.20
2022-12-12T16:24:33.378Z,-0.20
2022-12-12T16:27:36.417Z,0.70
2022-12-12T16:30:44.057Z,-0.30
2022-12-12T16:33:47.072Z,-0.10
2022-12-12T16:36:50.074Z,0.50
2022-12-12T16:39:53.172Z,-0.10
2022-12-12T16:43:09.338Z,-0.10
2022-12-12T16:46:21.153Z,1.00
2022-12-12T16:49:24.201Z,-0.10
2022-12-12T16:52:27.233Z,0.00
2022-12-12T16:55:30.459Z,0.60
2022-12-12T16:58:33.932Z,0.00
2022-12-12T17:01:39.037Z,0.00
2022-12-12T17:04:42.128Z,-0.70
2022-12-12T17:07:45.134Z,-0.10
2022-12-12T17:10:50.615Z,0.10
2022-12-12T17:13:53.647Z,0.00
2022-12-12T17:16:58.079Z,0.00
2022-12-12T17:20:01.235Z,0.10
2022-12-12T17:26:25.898Z,0.20
2022-12-12T17:29:28.788Z,0.20
2022-12-12T17:32:33.041Z,0.30
2022-12-12T17:35:36.061Z,0.40
2022-12-12T17:38:39.096Z,0.50
2022-12-12T17:41:42.274Z,2.00
2022-12-12T17:44:45.294Z,0.70
2022-12-12T17:47:49.570Z,0.70
2022-12-12T17:50:59.122Z,0.30
2022-12-12T17:54:02.157Z,0.90
2022-12-12T17:57:05.487Z,0.90
2022-12-12T18:00:11.496Z,1.00
2022-12-12T18:03:16.082Z,1.10
2022-12-12T18:06:21.722Z,1.10
2022-12-12T18:09:25.887Z,1.20
2022-12-12T18:12:28.924Z,1.20
2022-12-12T18:15:31.788Z,1.20
2022-12-12T18:18:36.672Z,1.30
2022-12-12T18:25:03.093Z,1.30
2022-12-12T18:28:06.365Z,1.30
2022-12-12T18:31:09.809Z,1.30
2022-12-12T18:34:14.676Z,1.20
2022-12-12T18:37:17.752Z,1.20
2022-12-12T18:40:21.165Z,1.10
2022-12-12T18:43:25.579Z,1.30
2022-12-12T18:46:30.098Z,0.90
2022-12-12T18:49:34.647Z,0.90
2022-12-12T18:52:38.285Z,0.90
2022-12-12T18:55:42.402Z,0.90
2022-12-12T18:58:46.214Z,0.40
2022-12-12T19:01:51.518Z,0.50
2022-12-12T19:04:55.953Z,0.60
2022-12-12T19:07:59.655Z,1.80
2022-12-12T19:11:02.864Z,0.50
2022-12-12T19:14:06.629Z,0.40
2022-12-12T19:17:09.708Z,0.30
2022-12-12T19:20:14.574Z,0.20
2022-12-12T19:23:17.817Z,0.20
2022-12-12T19:26:26.576Z,1.20
2022-12-12T19:29:29.681Z,0.10
2022-12-12T19:32:32.710Z,0.00
2022-12-12T19:35:38.848Z,-0.10
2022-12-12T19:38:43.099Z,-0.10
2022-12-12T19:41:47.409Z,-0.50
2022-12-12T19:44:50.527Z,-0.40
2022-12-12T19:47:54.952Z,-0.20
2022-12-12T19:51:06.885Z,-0.20
2022-12-12T19:54:15.793Z,-0.30
2022-12-12T19:57:27.357Z,-0.30
2022-12-12T20:00:33.277Z,-0.40
2022-12-12T20:03:37.526Z,-0.40
2022-12-12T20:06:46.032Z,-0.40
2022-12-12T20:09:49.795Z,-0.40
2022-12-12T20:12:58.504Z,-0.40
2022-12-12T20:16:07.338Z,-0.40
2022-12-12T20:19:12.172Z,-0.40
2022-12-12T20:22:17.279Z,-0.40
2022-12-12T20:25:20.605Z,-0.40
2022-12-12T20:28:23.839Z,0.20
2022-12-12T20:31:29.959Z,-0.40
2022-12-12T20:34:32.984Z,-0.40
2022-12-12T20:37:37.433Z,0.30
2022-12-12T20:40:41.038Z,-0.40
2022-12-12T20:43:46.438Z,-0.30
2022-12-12T20:46:49.445Z,-0.30
2022-12-12T20:49:52.555Z,-0.30
2022-12-12T20:52:56.923Z,-0.30
2022-12-12T20:56:10.573Z,-0.30
2022-12-12T20:59:14.399Z,-0.30
2022-12-12T21:02:18.316Z,-0.30
2022-12-12T21:05:21.488Z,-0.30
2022-12-12T21:08:25.985Z,-0.30
2022-12-12T21:11:29.472Z,-0.30
2022-12-12T21:14:35.421Z,-0.30
2022-12-12T21:17:38.587Z,-0.40
2022-12-12T21:20:45.823Z,-0.60
2022-12-12T21:23:50.321Z,0.10
2022-12-12T21:26:53.382Z,-0.50
2022-12-12T21:29:56.374Z,-0.50
2022-12-12T21:32:59.583Z,-0.60
2022-12-12T21:36:05.366Z,0.40
2022-12-12T21:39:10.228Z,-0.80
2022-12-12T21:42:13.219Z,-0.80
2022-12-12T21:45:17.329Z,-0.90
2022-12-12T21:48:20.273Z,-0.90
2022-12-12T21:51:23.318Z,-1.00
2022-12-12T21:54:29.711Z,-1.10
2022-12-12T21:57:32.805Z,-1.10
2022-12-12T22:00:39.735Z,-1.10
2022-12-12T22:03:43.327Z,-0.50
2022-12-12T22:06:47.279Z,-1.00
2022-12-12T22:09:57.169Z,-0.40
2022-12-12T22:13:13.338Z,-0.90
2022-12-12T22:16:19.928Z,-1.00
2022-12-12T22:19:23.037Z,-1.50
2022-12-12T22:22:26.165Z,-0.80
2022-12-12T22:25:31.803Z,-0.70
2022-12-12T22:28:36.569Z,-0.60
2022-12-12T22:31:41.818Z,-0.30
2022-12-12T22:34:44.953Z,-0.60
2022-12-12T22:37:48.141Z,-0.70
2022-12-12T22:40:56.557Z,-0.40
2022-12-12T22:44:02.745Z,-0.30
2022-12-12T22:47:06.055Z,-0.30
2022-12-12T22:50:10.430Z,-0.70
2022-12-12T22:53:13.458Z,-0.20
2022-12-12T22:56:18.361Z,-0.20
2022-12-12T22:59:21.337Z,-0.10
2022-12-12T23:02:25.383Z,-0.10
2022-12-12T23:05:29.014Z,-0.10
2022-12-12T23:08:32.497Z,1.00
2022-12-12T23:11:37.560Z,0.10
2022-12-12T23:14:40.608Z,0.20
2022-12-12T23:17:44.068Z,0.50
2022-12-12T23:20:47.200Z,0.30
2022-12-12T23:23:50.787Z,0.20
2022-12-12T23:26:55.202Z,0.30
2022-12-12T23:29:58.654Z,0.30
2022-12-12T23:33:01.610Z,1.50
2022-12-12T23:36:05.470Z,1.00
2022-12-12T23:39:12.192Z,0.20
2022-12-12T23:42:16.927Z,0.10
2022-12-12T23:45:19.943Z,0.10
2022-12-12T23:48:22.919Z,0.40
2022-12-12T23:51:27.971Z,0.10
2022-12-12T23:54:33.648Z,0.10
2022-12-12T23:57:38.041Z,0.10
